Time;durP1;ratioP1;P1;durP2;ratioP2;P2;SDS_P1;SDS_P2;PMS_P1;PMS_P2;Temp;Humidity;BMP_temperature;BMP_pressure;BME280_temperature;BME280_humidity;BME280_pressure;Samples;Min_cycle;Max_cycle;Signal;HPM_P1;HPM_P2
2021/09/18 00:02:21;;;;;;;5.28;3.20;;;;;;;16.09;59.74;97341.31;5083059;28;20020;-43
2021/09/18 00:04:46;;;;;;;4.80;3.35;;;;;;;16.23;59.54;97337.91;5083982;28;20695;-43
2021/09/18 00:07:11;;;;;;;6.13;3.78;;;;;;;16.33;59.54;97334.25;5083716;28;20085;-42
2021/09/18 00:09:37;;;;;;;5.85;3.42;;;;;;;16.29;58.84;97341.38;5084923;28;20055;-46
2021/09/18 00:12:03;;;;;;;5.03;3.17;;;;;;;16.22;59.57;97339.81;5084703;28;20434;-45
2021/09/18 00:14:28;;;;;;;6.72;3.38;;;;;;;16.27;59.70;97340.84;5085612;28;20028;-46
2021/09/18 00:16:53;;;;;;;4.68;3.13;;;;;;;16.35;59.09;97330.13;5066472;28;20051;-52
2021/09/18 00:19:19;;;;;;;6.13;3.42;;;;;;;16.26;59.29;97337.31;5072942;28;20023;-47
2021/09/18 00:21:44;;;;;;;6.15;3.85;;;;;;;16.23;59.24;97333.25;5078398;28;20714;-45
2021/09/18 00:24:09;;;;;;;4.85;3.28;;;;;;;16.11;59.33;97335.56;5085392;28;20039;-52
2021/09/18 00:26:36;;;;;;;5.10;3.15;;;;;;;16.12;59.59;97339.94;5085071;28;20106;-47
2021/09/18 00:29:03;;;;;;;4.28;2.85;;;;;;;16.01;59.78;97336.47;5069201;28;20015;-48
2021/09/18 00:31:28;;;;;;;5.70;3.05;;;;;;;16.07;59.46;97345.44;5085583;28;20533;-48
2021/09/18 00:33:54;;;;;;;4.88;3.22;;;;;;;15.98;59.46;97331.59;5085009;28;20107;-51
2021/09/18 00:36:19;;;;;;;6.45;3.53;;;;;;;16.02;59.31;97334.53;5084652;28;20085;-46
2021/09/18 00:38:44;;;;;;;4.40;3.30;;;;;;;15.88;60.13;97337.13;5084934;28;20027;-41
2021/09/18 00:41:10;;;;;;;4.90;3.10;;;;;;;15.95;59.77;97341.19;5096610;28;20050;-45
2021/09/18 00:43:35;;;;;;;4.93;3.60;;;;;;;15.83;60.11;97341.53;5106243;28;20133;-45
2021/09/18 00:46:01;;;;;;;5.68;3.50;;;;;;;15.96;59.82;97334.59;5093507;28;20099;-43
2021/09/18 00:48:26;;;;;;;7.38;3.78;;;;;;;15.94;59.22;97339.56;5084968;28;20730;-49
2021/09/18 00:50:51;;;;;;;5.18;3.25;;;;;;;15.88;60.11;97337.94;5094237;28;20110;-50
2021/09/18 00:53:17;;;;;;;4.90;3.28;;;;;;;15.81;59.71;97334.75;5105556;28;20028;-44
2021/09/18 00:55:43;;;;;;;4.78;3.45;;;;;;;15.88;59.76;97334.41;5104847;28;20394;-47
2021/09/18 00:58:08;;;;;;;5.85;3.80;;;;;;;15.88;59.70;97337.94;5105691;28;20036;-49
2021/09/18 01:00:34;;;;;;;8.10;3.92;;;;;;;15.89;59.42;97334.13;5105502;28;20406;-45
2021/09/18 01:02:59;;;;;;;5.10;3.78;;;;;;;15.85;59.39;97336.59;5105411;28;20038;-43
2021/09/18 01:05:25;;;;;;;4.30;3.40;;;;;;;15.79;59.12;97339.66;5105486;28;20096;-48
2021/09/18 01:07:52;;;;;;;5.97;3.70;;;;;;;15.62;59.31;97340.09;5105599;28;20031;-46
2021/09/18 01:10:17;;;;;;;7.78;3.78;;;;;;;15.58;59.45;97328.91;5084893;28;20028;-45
2021/09/18 01:12:58;;;;;;;5.40;3.85;;;;;;;15.60;59.42;97332.19;5084805;28;20077;-48
2021/09/18 01:15:25;;;;;;;8.52;3.67;;;;;;;15.51;59.43;97329.25;5093467;28;20023;-43
2021/09/18 01:17:50;;;;;;;6.75;4.03;;;;;;;15.49;59.56;97326.00;5079231;28;20020;-50
2021/09/18 01:20:16;;;;;;;7.78;3.85;;;;;;;15.43;59.77;97336.13;5080880;28;20028;-45
2021/09/18 01:22:42;;;;;;;5.22;3.72;;;;;;;15.41;59.81;97319.22;5084624;28;20107;-47
2021/09/18 01:25:07;;;;;;;5.72;3.80;;;;;;;15.36;59.74;97324.72;5084879;28;20024;-44
2021/09/18 01:27:33;;;;;;;5.65;3.97;;;;;;;15.32;59.90;97329.13;5083107;28;20036;-47
2021/09/18 01:29:58;;;;;;;5.07;3.75;;;;;;;15.30;59.73;97323.16;5084160;28;20695;-45
2021/09/18 01:32:23;;;;;;;7.72;3.92;;;;;;;15.26;59.85;97333.78;5084645;28;20626;-46
2021/09/18 01:34:49;;;;;;;5.32;3.88;;;;;;;15.28;59.79;97328.06;5084729;28;20028;-45
2021/09/18 01:37:15;;;;;;;6.88;3.72;;;;;;;15.29;59.76;97326.97;5084702;28;20111;-46
2021/09/18 01:39:40;;;;;;;5.13;3.90;;;;;;;15.24;59.77;97322.38;5083998;28;20034;-44
2021/09/18 01:42:05;;;;;;;6.72;3.83;;;;;;;15.22;59.63;97327.28;5071851;28;20024;-43
2021/09/18 01:44:31;;;;;;;5.28;3.58;;;;;;;15.21;59.66;97323.75;5071781;28;20039;-42
2021/09/18 01:46:56;;;;;;;5.70;3.60;;;;;;;15.21;59.67;97326.47;5082609;28;20491;-42
2021/09/18 01:49:21;;;;;;;5.47;3.80;;;;;;;15.16;59.77;97322.97;5082975;28;20107;-46
2021/09/18 01:52:04;;;;;;;6.22;3.90;;;;;;;15.18;59.88;97318.03;5082151;28;20105;-43
2021/09/18 01:54:29;;;;;;;7.80;3.45;;;;;;;15.23;59.79;97328.91;5082432;28;20028;-43
2021/09/18 01:56:55;;;;;;;5.60;3.90;;;;;;;15.30;59.99;97323.16;5081685;28;20031;-44
2021/09/18 01:59:20;;;;;;;5.18;3.67;;;;;;;15.32;59.88;97321.75;5083188;28;20074;-42
2021/09/18 02:01:45;;;;;;;7.20;3.42;;;;;;;15.23;59.86;97326.19;5084525;28;20020;-43
2021/09/18 02:04:10;;;;;;;5.55;3.75;;;;;;;15.16;60.06;97323.78;5084231;28;20394;-43
2021/09/18 02:06:36;;;;;;;4.80;3.38;;;;;;;15.13;59.87;97318.06;5084580;28;20403;-46
2021/09/18 02:09:01;;;;;;;6.55;4.13;;;;;;;15.10;59.97;97319.44;5084248;28;20035;-43
2021/09/18 02:11:27;;;;;;;5.45;3.90;;;;;;;15.12;60.08;97321.91;5084022;28;20032;-45
2021/09/18 02:13:52;;;;;;;6.50;3.85;;;;;;;15.14;59.98;97317.78;5084717;28;20027;-47
2021/09/18 02:16:17;;;;;;;4.95;3.70;;;;;;;15.00;60.26;97324.97;5070485;28;20031;-45
2021/09/18 02:18:43;;;;;;;7.60;4.32;;;;;;;14.98;60.21;97317.09;5063920;28;20016;-43
2021/09/18 02:21:08;;;;;;;5.15;3.50;;;;;;;15.07;60.15;97320.00;5063365;28;20041;-44
2021/09/18 02:23:33;;;;;;;5.43;4.10;;;;;;;15.09;59.94;97315.09;5062734;28;20031;-43
2021/09/18 02:25:59;;;;;;;4.97;3.53;;;;;;;15.08;60.20;97314.28;5067533;28;20554;-42
2021/09/18 02:28:26;;;;;;;4.90;3.47;;;;;;;15.19;60.62;97314.22;5065789;28;20024;-43
2021/09/18 02:30:51;;;;;;;5.55;3.65;;;;;;;15.20;60.54;97321.31;5095387;28;20012;-43
2021/09/18 02:33:16;;;;;;;7.72;3.70;;;;;;;15.08;60.28;97313.47;5107611;28;20054;-43
2021/09/18 02:35:42;;;;;;;4.60;3.30;;;;;;;15.07;60.09;97320.00;5107933;28;20027;-42
2021/09/18 02:38:07;;;;;;;4.70;3.35;;;;;;;15.00;60.01;97314.06;5108053;28;20232;-46
2021/09/18 02:40:35;;;;;;;5.18;3.83;;;;;;;14.89;60.27;97313.31;5107235;28;20028;-46
2021/09/18 02:43:01;;;;;;;5.10;3.70;;;;;;;14.92;60.25;97315.47;5107249;28;20038;-45
2021/09/18 02:45:27;;;;;;;4.95;3.80;;;;;;;14.84;60.06;97314.16;5093252;28;20032;-45
2021/09/18 02:47:53;;;;;;;7.03;3.22;;;;;;;14.87;60.13;97312.78;5087117;28;20051;-42
2021/09/18 02:50:19;;;;;;;5.50;3.78;;;;;;;14.93;60.19;97312.47;5086717;28;20394;-42
2021/09/18 02:52:45;;;;;;;4.80;3.50;;;;;;;15.00;60.11;97314.06;5086080;28;20101;-43
2021/09/18 02:55:11;;;;;;;7.85;4.00;;;;;;;15.01;59.93;97307.53;5086735;28;20367;-43
2021/09/18 02:57:36;;;;;;;4.88;3.30;;;;;;;14.98;59.85;97313.53;5087116;28;20031;-43
2021/09/18 03:00:04;;;;;;;6.65;3.55;;;;;;;15.00;60.22;97309.41;5086690;28;20032;-43
2021/09/18 03:02:29;;;;;;;5.43;3.40;;;;;;;14.99;59.93;97315.16;5086983;28;20074;-45
2021/09/18 03:04:54;;;;;;;5.00;3.72;;;;;;;14.94;59.94;97305.13;5087098;28;20059;-46
2021/09/18 03:07:20;;;;;;;6.05;4.00;;;;;;;14.90;60.15;97304.03;5086997;28;20032;-43
2021/09/18 03:09:45;;;;;;;6.95;4.07;;;;;;;14.91;60.16;97303.75;5086358;28;20123;-44
2021/09/18 03:12:10;;;;;;;4.78;3.55;;;;;;;14.84;60.24;97297.81;5086800;28;20023;-45
2021/09/18 03:14:36;;;;;;;5.57;3.67;;;;;;;14.84;59.99;97297.81;5086451;28;20031;-44
2021/09/18 03:17:01;;;;;;;5.93;3.80;;;;;;;14.70;60.21;97298.41;5067505;28;20029;-43
2021/09/18 03:19:27;;;;;;;5.53;3.67;;;;;;;14.72;60.16;97302.75;5066410;28;20032;-43
2021/09/18 03:21:52;;;;;;;5.22;3.80;;;;;;;14.64;60.37;97302.25;5065150;28;20024;-47
2021/09/18 03:24:17;;;;;;;4.95;4.10;;;;;;;14.60;60.22;97290.28;5065210;28;20108;-44
2021/09/18 03:26:43;;;;;;;6.32;3.95;;;;;;;14.51;60.28;97295.50;5085550;28;20098;-46
2021/09/18 03:29:10;;;;;;;5.20;3.72;;;;;;;14.51;60.45;97291.94;5102020;28;20115;-46
2021/09/18 03:31:36;;;;;;;5.95;3.83;;;;;;;14.52;60.69;97293.59;5085917;28;20070;-44
2021/09/18 03:34:01;;;;;;;5.85;3.78;;;;;;;14.56;60.42;97297.38;5086446;28;20019;-46
2021/09/18 03:36:26;;;;;;;6.30;4.07;;;;;;;14.56;60.58;97297.38;5086367;28;20607;-45
2021/09/18 03:38:52;;;;;;;5.25;4.20;;;;;;;14.62;60.18;97303.59;5085492;28;20089;-43
2021/09/18 03:41:17;;;;;;;6.03;3.70;;;;;;;14.62;60.36;97298.97;5098918;28;20026;-44
2021/09/18 03:43:43;;;;;;;6.53;4.18;;;;;;;14.63;60.32;97288.91;5107034;28;20024;-45
2021/09/18 03:46:08;;;;;;;5.85;3.60;;;;;;;14.60;60.49;97298.47;5081081;28;20103;-43
2021/09/18 03:48:34;;;;;;;5.45;4.05;;;;;;;14.55;60.34;97301.19;5086016;28;20108;-42
2021/09/18 03:50:59;;;;;;;6.70;3.80;;;;;;;14.56;60.71;97294.66;5085312;28;20044;-45
2021/09/18 03:53:25;;;;;;;5.28;3.72;;;;;;;14.66;60.61;97288.31;5086072;28;20028;-44
2021/09/18 03:55:51;;;;;;;6.50;3.90;;;;;;;14.65;60.43;97284.81;5085650;28;20036;-42
2021/09/18 03:58:17;;;;;;;6.80;4.03;;;;;;;14.62;60.82;97288.09;5085761;28;20052;-44
2021/09/18 04:00:42;;;;;;;6.50;3.72;;;;;;;14.59;60.80;97291.34;5084231;28;20056;-45
2021/09/18 04:03:07;;;;;;;6.65;4.05;;;;;;;14.57;60.38;97291.63;5085633;28;20694;-46
2021/09/18 04:05:33;;;;;;;7.57;4.00;;;;;;;14.50;60.53;97288.44;5086062;28;20030;-44
2021/09/18 04:07:58;;;;;;;5.53;3.88;;;;;;;14.50;60.54;97293.03;5085104;28;20112;-47
2021/09/18 04:10:23;;;;;;;5.82;4.22;;;;;;;14.52;60.46;97294.38;5085602;28;20141;-47
2021/09/18 04:12:49;;;;;;;5.28;3.75;;;;;;;14.56;60.47;97291.94;5085578;28;20035;-43
2021/09/18 04:15:14;;;;;;;6.70;4.03;;;;;;;14.50;60.69;97293.03;5086295;28;20024;-46
2021/09/18 04:17:39;;;;;;;5.40;3.95;;;;;;;14.47;60.67;97291.69;5064524;28;20032;-43
2021/09/18 04:20:06;;;;;;;5.97;3.80;;;;;;;14.46;60.78;97295.53;5064245;28;20028;-43
2021/09/18 04:22:31;;;;;;;5.47;3.75;;;;;;;14.77;59.97;97298.13;5074074;28;20031;-44
2021/09/18 04:24:57;;;;;;;5.35;3.70;;;;;;;15.00;59.08;97292.25;5067602;28;20537;-46
2021/09/18 04:27:22;;;;;;;6.60;3.38;;;;;;;15.28;58.80;97298.88;5064936;28;20024;-44
2021/09/18 04:29:48;;;;;;;5.80;3.50;;;;;;;15.53;58.37;97299.78;5076159;28;20433;-43
2021/09/18 04:32:13;;;;;;;4.32;3.25;;;;;;;15.64;57.28;97302.41;5086073;28;20115;-42
2021/09/18 04:34:38;;;;;;;9.38;4.07;;;;;;;15.68;56.90;97301.56;5084912;28;20807;-44
2021/09/18 04:37:04;;;;;;;5.05;3.38;;;;;;;15.81;56.56;97301.97;5083701;28;20074;-43
2021/09/18 04:39:29;;;;;;;8.20;3.35;;;;;;;15.85;55.83;97303.03;5084816;28;20028;-44
2021/09/18 04:41:54;;;;;;;6.40;3.38;;;;;;;15.89;55.91;97309.53;5087199;28;20121;-45
2021/09/18 04:44:20;;;;;;;5.25;3.22;;;;;;;15.91;56.03;97309.22;5084718;28;20486;-47
2021/09/18 04:46:45;;;;;;;6.15;3.60;;;;;;;15.83;56.20;97316.13;5082896;28;20108;-53
2021/09/18 04:49:11;;;;;;;4.18;3.00;;;;;;;15.84;56.04;97317.75;5078361;28;20058;-51
2021/09/18 04:51:37;;;;;;;5.00;3.75;;;;;;;15.93;55.56;97323.44;5081479;28;20019;-48
2021/09/18 04:54:03;;;;;;;6.32;3.35;;;;;;;16.00;54.96;97323.94;5080912;28;20126;-50
2021/09/18 04:56:28;;;;;;;6.07;3.60;;;;;;;16.04;54.47;97326.91;5072672;28;20012;-54
2021/09/18 04:58:54;;;;;;;5.32;3.28;;;;;;;16.04;53.94;97330.44;5079387;28;20028;-46
2021/09/18 05:01:19;;;;;;;6.00;3.50;;;;;;;15.95;54.51;97330.25;5062479;28;20078;-47
2021/09/18 05:03:44;;;;;;;4.43;3.17;;;;;;;15.58;55.79;97334.38;5063224;28;20074;-44
2021/09/18 05:06:10;;;;;;;8.63;3.72;;;;;;;15.44;56.43;97337.75;5067551;28;20028;-44
2021/09/18 05:08:35;;;;;;;5.32;3.50;;;;;;;15.43;57.10;97338.03;5071115;28;20108;-44
2021/09/18 05:11:01;;;;;;;6.00;3.42;;;;;;;15.46;56.71;97327.38;5071383;28;20074;-44
2021/09/18 05:13:26;;;;;;;5.20;3.40;;;;;;;15.45;56.78;97333.13;5079604;28;20112;-43
2021/09/18 05:15:51;;;;;;;8.73;3.33;;;;;;;15.44;56.72;97340.47;5090233;28;20748;-46
2021/09/18 05:18:17;;;;;;;5.38;2.95;;;;;;;15.48;56.98;97330.63;5081004;28;20035;-44
2021/09/18 05:20:42;;;;;;;5.57;3.60;;;;;;;15.43;57.06;97330.69;5082203;28;20028;-43
2021/09/18 05:23:07;;;;;;;5.35;3.10;;;;;;;15.39;57.24;97331.53;5068510;28;20055;-47
2021/09/18 05:25:33;;;;;;;5.40;3.70;;;;;;;15.45;57.34;97330.41;5062465;28;20658;-44
2021/09/18 05:27:58;;;;;;;5.80;3.70;;;;;;;15.43;57.42;97338.88;5079781;28;20020;-44
2021/09/18 05:30:24;;;;;;;5.28;3.45;;;;;;;15.44;57.49;97332.31;5084728;28;20616;-46
2021/09/18 05:32:49;;;;;;;5.43;3.28;;;;;;;15.47;57.64;97331.75;5084292;28;20035;-44
2021/09/18 05:35:14;;;;;;;6.32;3.90;;;;;;;15.53;57.72;97335.25;5085030;28;20028;-43
2021/09/18 05:37:40;;;;;;;5.10;3.40;;;;;;;15.57;57.10;97333.56;5084288;28;20082;-48
2021/09/18 05:40:06;;;;;;;5.72;3.70;;;;;;;15.51;57.23;97347.53;5100331;28;20080;-45
2021/09/18 05:42:32;;;;;;;5.95;3.47;;;;;;;15.46;57.45;97348.38;5104170;28;20023;-44
2021/09/18 05:44:57;;;;;;;4.25;3.15;;;;;;;15.47;57.27;97348.09;5101459;28;20028;-44
2021/09/18 05:47:22;;;;;;;5.85;3.33;;;;;;;15.57;57.29;97349.13;5084338;28;20064;-43
2021/09/18 05:49:48;;;;;;;5.10;3.53;;;;;;;15.59;57.31;97346.94;5084577;28;20020;-44
2021/09/18 05:52:13;;;;;;;6.85;3.50;;;;;;;15.59;57.30;97345.00;5099501;28;20051;-44
2021/09/18 05:54:39;;;;;;;5.00;3.38;;;;;;;15.69;57.17;97346.84;5104967;28;20023;-46
2021/09/18 05:57:04;;;;;;;5.22;3.28;;;;;;;15.67;57.25;97351.75;5104990;28;20120;-46
2021/09/18 05:59:29;;;;;;;5.70;3.28;;;;;;;15.64;57.86;97346.06;5105089;28;20118;-47
2021/09/18 06:01:55;;;;;;;5.57;3.70;;;;;;;15.59;58.14;97349.66;5108010;28;20031;-44
2021/09/18 06:04:20;;;;;;;5.93;3.53;;;;;;;15.60;58.03;97352.09;5108979;27;20024;-49
2021/09/18 06:06:45;;;;;;;4.93;3.22;;;;;;;15.62;57.82;97348.28;5107856;27;20061;-48
2021/09/18 06:09:11;;;;;;;6.03;3.10;;;;;;;15.61;57.71;97347.47;5099860;28;20051;-49
2021/09/18 06:11:36;;;;;;;4.65;2.97;;;;;;;15.65;58.15;97351.25;5080424;28;20051;-47
2021/09/18 06:14:02;;;;;;;5.85;3.40;;;;;;;15.69;57.93;97355.03;5090286;28;20053;-52
2021/09/18 06:16:27;;;;;;;4.40;3.20;;;;;;;15.76;57.81;97357.44;5076667;28;20067;-44
2021/09/18 06:18:53;;;;;;;4.70;3.70;;;;;;;15.73;57.85;97358.00;5085825;28;20070;-48
2021/09/18 06:21:19;;;;;;;6.78;3.88;;;;;;;15.93;57.77;97359.75;5082620;28;20067;-46
2021/09/18 06:23:45;;;;;;;5.13;3.65;;;;;;;15.85;58.18;97360.38;5075237;28;20483;-44
2021/09/18 06:26:10;;;;;;;5.13;3.25;;;;;;;15.92;58.09;97360.81;5079735;28;20032;-44
2021/09/18 06:28:36;;;;;;;5.55;3.33;;;;;;;15.91;58.21;97364.66;5084663;28;20027;-48
2021/09/18 06:31:02;;;;;;;5.05;3.03;;;;;;;15.91;58.48;97361.94;5087098;28;20105;-46
2021/09/18 06:33:27;;;;;;;5.57;3.40;;;;;;;15.91;58.33;97364.66;5087773;28;20020;-47
2021/09/18 06:35:53;;;;;;;4.93;3.35;;;;;;;15.96;58.56;97367.38;5087563;28;20024;-44
2021/09/18 06:38:21;;;;;;;5.45;3.90;;;;;;;15.95;58.61;97363.03;5089480;28;20090;-48
2021/09/18 06:40:51;;;;;;;4.53;3.20;;;;;;;15.98;58.75;97361.63;5096077;28;20035;-44
2021/09/18 06:43:17;;;;;;;4.72;3.13;;;;;;;16.03;58.74;97361.56;5106758;28;20019;-45
2021/09/18 06:45:43;;;;;;;5.22;3.22;;;;;;;16.07;58.70;97357.16;5097331;28;20541;-48
2021/09/18 06:48:08;;;;;;;5.53;3.20;;;;;;;16.10;58.88;97355.78;5087494;28;20028;-45
2021/09/18 06:50:33;;;;;;;5.03;3.40;;;;;;;16.14;58.97;97359.56;5086940;28;20382;-45
2021/09/18 06:52:59;;;;;;;4.43;2.95;;;;;;;16.19;59.04;97361.44;5086133;28;20107;-46
2021/09/18 06:55:24;;;;;;;4.60;3.35;;;;;;;16.22;58.98;97360.84;5087162;28;20027;-44
2021/09/18 06:57:50;;;;;;;4.60;3.05;;;;;;;16.25;59.07;97363.81;5086761;28;20024;-45
2021/09/18 07:00:15;;;;;;;4.72;3.30;;;;;;;16.30;59.06;97356.66;5087179;28;20411;-47
2021/09/18 07:02:41;;;;;;;4.60;3.20;;;;;;;16.34;58.89;97365.91;5086340;28;20031;-44
2021/09/18 07:05:07;;;;;;;4.93;3.38;;;;;;;16.30;59.33;97368.44;5087364;28;20020;-47
2021/09/18 07:07:32;;;;;;;5.43;3.38;;;;;;;16.40;59.09;97366.69;5086606;28;20035;-46
2021/09/18 07:09:58;;;;;;;7.38;3.55;;;;;;;16.43;59.25;97366.09;5085575;28;20028;-45
2021/09/18 07:12:24;;;;;;;4.60;3.42;;;;;;;16.47;59.27;97372.63;5086503;28;20023;-48
2021/09/18 07:14:49;;;;;;;4.93;3.25;;;;;;;16.52;59.18;97364.34;5093856;28;20011;-47
2021/09/18 07:17:14;;;;;;;5.30;3.72;;;;;;;16.53;59.36;97365.97;5086833;28;20047;-43
2021/09/18 07:19:40;;;;;;;4.13;2.88;;;;;;;16.59;59.33;97373.00;5085781;28;20039;-46
2021/09/18 07:22:05;;;;;;;6.18;3.40;;;;;;;16.62;59.38;97366.16;5086495;28;20143;-47
2021/09/18 07:24:32;;;;;;;4.63;3.45;;;;;;;16.68;59.24;97367.72;5085577;28;20022;-45
2021/09/18 07:27:00;;;;;;;5.45;3.22;;;;;;;16.71;59.09;97363.56;5085879;28;20035;-45
2021/09/18 07:29:25;;;;;;;4.70;3.30;;;;;;;16.72;59.20;97371.50;5086410;28;20063;-48
2021/09/18 07:31:51;;;;;;;6.10;3.25;;;;;;;16.78;59.18;97370.31;5086085;28;20131;-46
2021/09/18 07:34:17;;;;;;;5.70;3.90;;;;;;;16.83;59.28;97374.09;5086774;28;20103;-47
2021/09/18 07:36:42;;;;;;;7.03;3.70;;;;;;;16.87;59.21;97373.22;5086347;28;20028;-48
2021/09/18 07:39:08;;;;;;;4.88;3.45;;;;;;;16.86;59.31;97378.97;5088279;28;20020;-47
2021/09/18 07:41:33;;;;;;;6.00;3.38;;;;;;;16.95;59.22;97374.47;5099202;28;20406;-47
2021/09/18 07:44:00;;;;;;;6.03;3.28;;;;;;;16.97;59.16;97380.47;5105971;28;20151;-49
2021/09/18 07:46:26;;;;;;;4.78;3.30;;;;;;;16.95;59.11;97374.47;5090852;28;20032;-46
2021/09/18 07:48:52;;;;;;;4.45;3.00;;;;;;;17.00;59.03;97379.06;5086313;28;20031;-44
2021/09/18 07:51:17;;;;;;;4.32;3.00;;;;;;;17.08;58.70;97374.88;5085015;28;20023;-46
2021/09/18 07:53:42;;;;;;;4.88;3.08;;;;;;;17.09;58.89;97376.50;5086456;28;20024;-46
2021/09/18 07:56:09;;;;;;;4.97;3.10;;;;;;;17.12;58.78;97375.94;5086057;28;20034;-45
2021/09/18 07:58:34;;;;;;;4.03;3.03;;;;;;;17.12;58.71;97374.03;5085885;28;20483;-50
2021/09/18 08:00:59;;;;;;;5.88;3.13;;;;;;;17.18;58.79;97373.94;5085288;28;20051;-48
2021/09/18 08:03:25;;;;;;;3.95;2.67;;;;;;;17.17;58.70;97373.13;5085930;28;20107;-44
2021/09/18 08:05:50;;;;;;;4.28;3.00;;;;;;;17.25;58.37;97372.44;5086019;28;20027;-44
2021/09/18 08:08:15;;;;;;;5.22;2.50;;;;;;;17.28;58.30;97382.81;5085407;28;20016;-44
2021/09/18 08:10:41;;;;;;;4.55;2.95;;;;;;;17.28;58.47;97382.81;5084181;28;20027;-47
2021/09/18 08:13:06;;;;;;;4.18;2.67;;;;;;;17.30;58.30;97377.06;5085820;28;20024;-48
2021/09/18 08:15:32;;;;;;;4.32;2.63;;;;;;;17.32;58.19;97376.75;5083924;28;20078;-47
2021/09/18 08:17:57;;;;;;;4.15;2.95;;;;;;;17.35;57.98;97381.63;5065396;28;20036;-44
2021/09/18 08:20:23;;;;;;;4.05;2.80;;;;;;;17.44;57.86;97384.50;5065316;28;20020;-47
2021/09/18 08:22:48;;;;;;;3.85;2.63;;;;;;;17.47;57.74;97379.25;5064426;28;20021;-48
2021/09/18 08:25:14;;;;;;;4.75;2.75;;;;;;;17.46;57.74;97376.84;5065298;28;20105;-46
2021/09/18 08:27:40;;;;;;;4.00;2.20;;;;;;;17.48;57.66;97377.34;5070479;28;20043;-46
2021/09/18 08:30:07;;;;;;;4.18;2.67;;;;;;;17.54;57.46;97378.88;5092218;28;20062;-49
2021/09/18 08:32:32;;;;;;;3.60;2.42;;;;;;;17.54;57.48;97378.88;5085023;28;20028;-44
2021/09/18 08:34:58;;;;;;;3.55;2.17;;;;;;;17.59;57.22;97380.72;5085397;28;20035;-46
2021/09/18 08:37:23;;;;;;;3.22;2.13;;;;;;;17.60;57.17;97372.22;5085316;28;20077;-49
2021/09/18 08:39:48;;;;;;;3.33;2.30;;;;;;;17.60;57.42;97379.59;5085524;28;20085;-45
2021/09/18 08:42:14;;;;;;;4.43;2.42;;;;;;;17.62;57.33;97382.88;5104283;28;20087;-51
2021/09/18 08:44:40;;;;;;;4.25;2.50;;;;;;;17.63;57.35;97384.50;5104836;28;20038;-52
2021/09/18 08:47:06;;;;;;;4.40;2.55;;;;;;;17.65;57.18;97390.47;5085448;28;20395;-46
2021/09/18 08:49:31;;;;;;;3.78;2.47;;;;;;;17.64;57.17;97384.19;5084671;28;20028;-46
2021/09/18 08:51:57;;;;;;;4.80;2.45;;;;;;;17.67;57.25;97388.25;5085020;28;20081;-43
2021/09/18 08:54:22;;;;;;;5.03;2.90;;;;;;;17.67;57.25;97404.69;5085418;28;20030;-44
2021/09/18 08:56:47;;;;;;;4.45;2.20;;;;;;;17.71;57.23;97393.94;5084410;28;20507;-46
2021/09/18 08:59:13;;;;;;;4.50;2.40;;;;;;;17.71;57.23;97389.28;5084649;28;20371;-43
2021/09/18 09:01:38;;;;;;;4.45;2.42;;;;;;;17.70;57.29;97390.41;5084837;28;20468;-46
2021/09/18 09:04:07;;;;;;;4.13;2.53;;;;;;;17.72;57.17;97390.13;5084954;28;20507;-47
2021/09/18 09:06:47;;;;;;;3.80;2.55;;;;;;;17.73;57.12;97386.25;5085234;28;20518;-45
2021/09/18 09:09:13;;;;;;;4.00;2.65;;;;;;;17.75;57.00;97393.06;5084561;28;20036;-44
2021/09/18 09:11:50;;;;;;;3.83;2.35;;;;;;;17.76;57.16;97385.66;5083618;28;20024;-48
2021/09/18 09:14:16;;;;;;;3.92;2.55;;;;;;;17.76;57.22;97386.47;5090991;28;20023;-44
2021/09/18 09:17:05;;;;;;;4.00;2.50;;;;;;;17.80;57.15;97392.19;5068206;28;20063;-44
2021/09/18 09:19:40;;;;;;;4.70;2.30;;;;;;;17.79;57.21;97387.78;5069338;28;20035;-46
2021/09/18 09:22:06;;;;;;;4.03;2.53;;;;;;;17.78;57.23;97388.91;5079709;28;20162;-48
2021/09/18 09:24:31;;;;;;;3.33;2.20;;;;;;;17.80;57.22;97378.50;5076537;28;20115;-44
2021/09/18 09:27:07;;;;;;;3.60;2.28;;;;;;;17.79;57.16;97379.56;5071589;28;20073;-47
2021/09/18 09:29:40;;;;;;;3.78;2.50;;;;;;;17.80;57.16;97381.22;5076331;28;20028;-44
2021/09/18 09:32:26;;;;;;;4.10;2.50;;;;;;;17.85;57.08;97383.03;5072124;28;20099;-46
2021/09/18 09:34:56;;;;;;;4.22;2.50;;;;;;;17.85;57.23;97374.84;5084660;28;20012;-44
2021/09/18 09:37:22;;;;;;;4.22;2.30;;;;;;;17.83;57.14;97377.06;5083755;28;20631;-48
2021/09/18 09:39:52;;;;;;;4.43;2.58;;;;;;;17.84;56.83;97379.47;5087081;28;20107;-45
2021/09/18 09:42:27;;;;;;;3.33;2.10;;;;;;;17.85;57.11;97372.09;5087212;28;20038;-49
2021/09/18 09:44:53;;;;;;;3.85;2.55;;;;;;;17.86;56.55;97370.97;5084450;28;20110;-45
2021/09/18 09:47:23;;;;;;;3.88;2.65;;;;;;;17.84;56.17;97367.72;5081236;28;20513;-49
2021/09/18 09:49:54;;;;;;;3.92;2.03;;;;;;;17.75;54.34;97373.06;5082706;28;20072;-48
2021/09/18 09:52:28;;;;;;;3.85;2.30;;;;;;;17.73;55.81;97378.84;5084912;28;20377;-44
2021/09/18 09:54:58;;;;;;;5.00;2.45;;;;;;;17.77;55.29;97376.34;5081410;28;20023;-47
2021/09/18 09:57:23;;;;;;;6.82;2.45;;;;;;;17.80;55.55;97373.00;5081954;28;20031;-48
2021/09/18 09:59:48;;;;;;;3.63;2.30;;;;;;;17.81;55.90;97375.41;5066177;28;20032;-44
2021/09/18 10:02:14;;;;;;;7.10;2.60;;;;;;;17.84;55.69;97374.00;5081153;28;20047;-45
2021/09/18 10:04:40;;;;;;;4.60;2.63;;;;;;;17.83;55.25;97374.34;5086619;28;20048;-48
2021/09/18 10:07:08;;;;;;;3.50;2.20;;;;;;;17.83;54.83;97366.13;5085469;28;20127;-46
2021/09/18 10:09:35;;;;;;;6.47;2.20;;;;;;;17.80;54.89;97373.81;5081278;28;20024;-47
2021/09/18 10:12:01;;;;;;;3.67;2.20;;;;;;;17.84;54.78;97370.47;5080942;28;20043;-44
2021/09/18 10:14:28;;;;;;;4.47;3.00;;;;;;;17.85;55.12;97367.44;5084160;28;20122;-46
2021/09/18 10:16:56;;;;;;;4.50;2.20;;;;;;;17.86;54.78;97369.06;5081239;28;20025;-48
2021/09/18 10:19:53;;;;;;;4.88;2.20;;;;;;;17.88;54.54;97364.06;5080626;28;20102;-46
2021/09/18 10:25:27;;;;;;;3.15;1.95;;;;;;;17.90;54.48;97367.34;5081165;28;20043;-45
2021/09/18 10:28:09;;;;;;;3.60;2.00;;;;;;;17.89;54.53;97365.72;5084049;28;20102;-46
2021/09/18 10:30:45;;;;;;;3.25;2.00;;;;;;;17.90;54.85;97363.78;5083737;28;20501;-46
2021/09/18 10:33:41;;;;;;;3.63;2.25;;;;;;;17.92;54.76;97372.53;5082726;28;20032;-44
2021/09/18 10:36:15;;;;;;;5.00;2.00;;;;;;;17.92;54.86;97370.59;5083116;28;20032;-46
2021/09/18 10:38:50;;;;;;;3.40;2.05;;;;;;;17.95;54.46;97363.72;5086113;28;20067;-44
2021/09/18 10:41:18;;;;;;;5.25;2.08;;;;;;;17.96;54.48;97362.59;5085047;28;21288;-48
2021/09/18 10:43:58;;;;;;;4.43;2.28;;;;;;;17.99;54.44;97356.50;5083209;28;20016;-45
2021/09/18 10:46:46;;;;;;;4.32;1.85;;;;;;;18.00;53.58;97352.66;5083571;28;20035;-44
2021/09/18 10:49:43;;;;;;;4.28;2.10;;;;;;;17.95;53.50;97350.03;5073931;28;20028;-48
2021/09/18 10:52:20;;;;;;;5.60;2.35;;;;;;;17.96;53.86;97345.34;5082226;28;20092;-45
2021/09/18 10:55:10;;;;;;;4.57;2.40;;;;;;;17.98;53.65;97346.66;5083857;28;20031;-46
2021/09/18 10:57:38;;;;;;;3.38;2.10;;;;;;;18.00;53.90;97343.63;5107235;28;20031;-44
2021/09/18 11:00:10;;;;;;;3.85;2.20;;;;;;;18.03;53.80;97353.97;5089524;28;20024;-43
2021/09/18 11:02:35;;;;;;;3.88;2.10;;;;;;;18.02;53.80;97344.16;5084502;28;20031;-48
2021/09/18 11:05:02;;;;;;;3.15;2.00;;;;;;;18.03;53.72;97348.50;5086358;28;20028;-44
2021/09/18 11:07:40;;;;;;;4.28;2.60;;;;;;;18.00;52.88;97352.66;5086561;28;20061;-45
2021/09/18 11:10:06;;;;;;;4.22;2.40;;;;;;;17.99;53.21;97342.00;5084894;28;20028;-45
2021/09/18 11:12:32;;;;;;;4.00;2.40;;;;;;;17.97;52.65;97349.69;5084940;28;20020;-45
2021/09/18 11:15:12;;;;;;;4.63;2.30;;;;;;;17.99;52.71;97350.22;5084118;28;20031;-45
2021/09/18 11:17:44;;;;;;;4.47;2.40;;;;;;;17.97;52.69;97347.78;5076593;28;20103;-45
2021/09/18 11:20:13;;;;;;;3.13;1.98;;;;;;;17.95;52.25;97339.06;5080134;28;20527;-47
2021/09/18 11:22:39;;;;;;;5.30;2.45;;;;;;;17.96;52.52;97337.94;5086254;28;20032;-44
2021/09/18 11:25:34;;;;;;;3.63;2.03;;;;;;;18.00;51.77;97335.41;5084343;28;20028;-48
2021/09/18 11:28:09;;;;;;;3.20;2.13;;;;;;;17.94;50.82;97338.25;5083508;28;20640;-47
2021/09/18 11:30:44;;;;;;;3.92;2.40;;;;;;;17.97;51.47;97336.00;5079672;28;20032;-48
2021/09/18 11:33:10;;;;;;;3.47;2.10;;;;;;;17.98;50.18;97332.16;5083149;28;20073;-43
2021/09/18 11:35:37;;;;;;;3.85;2.20;;;;;;;17.97;50.61;97342.31;5080370;28;20085;-47
2021/09/18 11:38:05;;;;;;;3.25;2.00;;;;;;;17.97;51.45;97334.09;5081779;28;20016;-50